sensor_id;sensor_type;location;lat;lon;timestamp;temperature;humidity
41904;DHT22;27586;51.124;4.182;2023-07-20T00:02:00;18.00;99.90
41904;DHT22;27586;51.124;4.182;2023-07-20T00:04:26;17.90;99.90
41904;DHT22;27586;51.124;4.182;2023-07-20T00:06:51;18.00;99.90
41904;DHT22;27586;51.124;4.182;2023-07-20T00:09:17;18.00;99.90
41904;DHT22;27586;51.124;4.182;2023-07-20T00:11:49;17.90;99.90
41904;DHT22;27586;51.124;4.182;2023-07-20T00:14:18;17.90;99.90
41904;DHT22;27586;51.124;4.182;2023-07-20T00:16:49;17.90;99.90
41904;DHT22;27586;51.124;4.182;2023-07-20T00:19:22;17.90;99.90
41904;DHT22;27586;51.124;4.182;2023-07-20T00:21:47;17.80;99.90
41904;DHT22;27586;51.124;4.182;2023-07-20T00:24:13;17.80;99.90
41904;DHT22;27586;51.124;4.182;2023-07-20T00:26:39;17.80;99.90
41904;DHT22;27586;51.124;4.182;2023-07-20T00:29:04;17.80;99.90
41904;DHT22;27586;51.124;4.182;2023-07-20T00:31:30;17.80;99.90
41904;DHT22;27586;51.124;4.182;2023-07-20T00:33:56;17.70;99.90
41904;DHT22;27586;51.124;4.182;2023-07-20T00:36:22;17.70;99.90
41904;DHT22;27586;51.124;4.182;2023-07-20T00:38:47;17.60;99.90
41904;DHT22;27586;51.124;4.182;2023-07-20T00:41:13;17.60;99.90
41904;DHT22;27586;51.124;4.182;2023-07-20T00:43:39;17.50;99.90
41904;DHT22;27586;51.124;4.182;2023-07-20T00:46:04;17.40;99.90
41904;DHT22;27586;51.124;4.182;2023-07-20T00:48:31;17.40;99.90
41904;DHT22;27586;51.124;4.182;2023-07-20T00:50:58;17.40;99.90
41904;DHT22;27586;51.124;4.182;2023-07-20T00:53:24;17.40;99.90
41904;DHT22;27586;51.124;4.182;2023-07-20T00:55:50;17.30;99.90
41904;DHT22;27586;51.124;4.182;2023-07-20T00:58:15;17.30;99.90
41904;DHT22;27586;51.124;4.182;2023-07-20T01:00:41;17.20;99.90
41904;DHT22;27586;51.124;4.182;2023-07-20T01:03:07;17.10;99.90
41904;DHT22;27586;51.124;4.182;2023-07-20T01:09:02;17.00;99.90
41904;DHT22;27586;51.124;4.182;2023-07-20T01:11:43;16.90;99.90
41904;DHT22;27586;51.124;4.182;2023-07-20T01:14:09;16.90;99.90
41904;DHT22;27586;51.124;4.182;2023-07-20T01:16:35;16.90;99.90
41904;DHT22;27586;51.124;4.182;2023-07-20T01:19:01;16.90;99.90
41904;DHT22;27586;51.124;4.182;2023-07-20T01:25:18;16.80;99.90
41904;DHT22;27586;51.124;4.182;2023-07-20T01:32:42;16.80;99.90
41904;DHT22;27586;51.124;4.182;2023-07-20T01:35:10;16.70;99.90
41904;DHT22;27586;51.124;4.182;2023-07-20T01:37:37;16.70;99.90
41904;DHT22;27586;51.124;4.182;2023-07-20T01:40:03;16.60;99.90
41904;DHT22;27586;51.124;4.182;2023-07-20T01:42:29;16.60;99.90
41904;DHT22;27586;51.124;4.182;2023-07-20T01:44:55;16.50;99.90
41904;DHT22;27586;51.124;4.182;2023-07-20T01:47:20;16.60;99.90
41904;DHT22;27586;51.124;4.182;2023-07-20T01:49:46;16.50;99.90
41904;DHT22;27586;51.124;4.182;2023-07-20T01:52:12;16.50;99.90
41904;DHT22;27586;51.124;4.182;2023-07-20T01:54:37;16.50;99.90
41904;DHT22;27586;51.124;4.182;2023-07-20T01:57:03;16.40;99.90
41904;DHT22;27586;51.124;4.182;2023-07-20T01:59:29;16.30;99.90
41904;DHT22;27586;51.124;4.182;2023-07-20T02:01:55;16.30;99.90
41904;DHT22;27586;51.124;4.182;2023-07-20T02:04:20;16.20;99.90
41904;DHT22;27586;51.124;4.182;2023-07-20T02:06:46;16.20;99.90
41904;DHT22;27586;51.124;4.182;2023-07-20T02:09:11;16.20;99.90
41904;DHT22;27586;51.124;4.182;2023-07-20T02:11:37;16.10;99.90
41904;DHT22;27586;51.124;4.182;2023-07-20T02:14:03;16.10;99.90
41904;DHT22;27586;51.124;4.182;2023-07-20T02:16:28;16.10;99.90
41904;DHT22;27586;51.124;4.182;2023-07-20T02:18:54;16.00;99.90
41904;DHT22;27586;51.124;4.182;2023-07-20T02:21:22;16.10;99.90
41904;DHT22;27586;51.124;4.182;2023-07-20T02:23:48;16.10;99.90
41904;DHT22;27586;51.124;4.182;2023-07-20T02:26:14;16.00;99.90
41904;DHT22;27586;51.124;4.182;2023-07-20T02:28:40;16.10;99.90
41904;DHT22;27586;51.124;4.182;2023-07-20T02:31:06;16.00;99.90
41904;DHT22;27586;51.124;4.182;2023-07-20T02:33:32;16.00;99.90
41904;DHT22;27586;51.124;4.182;2023-07-20T02:35:58;16.10;99.90
41904;DHT22;27586;51.124;4.182;2023-07-20T02:38:23;16.10;99.90
41904;DHT22;27586;51.124;4.182;2023-07-20T02:40:50;16.00;99.90
41904;DHT22;27586;51.124;4.182;2023-07-20T02:43:16;16.00;99.90
41904;DHT22;27586;51.124;4.182;2023-07-20T02:45:41;16.00;99.90
41904;DHT22;27586;51.124;4.182;2023-07-20T02:48:10;16.00;99.90
41904;DHT22;27586;51.124;4.182;2023-07-20T02:50:35;16.00;99.90
41904;DHT22;27586;51.124;4.182;2023-07-20T02:53:02;16.00;99.90
41904;DHT22;27586;51.124;4.182;2023-07-20T02:55:28;15.90;99.90
41904;DHT22;27586;51.124;4.182;2023-07-20T02:57:53;16.10;99.90
41904;DHT22;27586;51.124;4.182;2023-07-20T03:00:19;16.10;99.90
41904;DHT22;27586;51.124;4.182;2023-07-20T03:02:46;16.10;99.90
41904;DHT22;27586;51.124;4.182;2023-07-20T03:05:15;16.00;99.90
41904;DHT22;27586;51.124;4.182;2023-07-20T03:07:42;15.90;99.90
41904;DHT22;27586;51.124;4.182;2023-07-20T03:10:09;15.90;99.90
41904;DHT22;27586;51.124;4.182;2023-07-20T03:12:35;15.80;99.90
41904;DHT22;27586;51.124;4.182;2023-07-20T03:15:04;15.80;99.90
41904;DHT22;27586;51.124;4.182;2023-07-20T03:17:30;15.80;99.90
41904;DHT22;27586;51.124;4.182;2023-07-20T03:19:56;15.80;99.90
41904;DHT22;27586;51.124;4.182;2023-07-20T03:22:21;15.80;99.90
41904;DHT22;27586;51.124;4.182;2023-07-20T03:24:47;15.70;99.90
41904;DHT22;27586;51.124;4.182;2023-07-20T03:27:13;15.70;99.90
41904;DHT22;27586;51.124;4.182;2023-07-20T03:29:39;15.70;99.90
41904;DHT22;27586;51.124;4.182;2023-07-20T03:32:05;15.70;99.90
41904;DHT22;27586;51.124;4.182;2023-07-20T03:34:31;15.70;99.90
41904;DHT22;27586;51.124;4.182;2023-07-20T03:36:56;15.80;99.90
41904;DHT22;27586;51.124;4.182;2023-07-20T03:39:22;15.90;99.90
41904;DHT22;27586;51.124;4.182;2023-07-20T03:41:48;16.00;99.90
41904;DHT22;27586;51.124;4.182;2023-07-20T03:44:14;16.00;99.90
41904;DHT22;27586;51.124;4.182;2023-07-20T03:46:39;16.10;99.90
41904;DHT22;27586;51.124;4.182;2023-07-20T03:49:05;16.10;99.90
41904;DHT22;27586;51.124;4.182;2023-07-20T03:51:32;16.10;99.90
41904;DHT22;27586;51.124;4.182;2023-07-20T03:53:57;16.10;99.90
41904;DHT22;27586;51.124;4.182;2023-07-20T03:56:23;16.10;99.90
41904;DHT22;27586;51.124;4.182;2023-07-20T03:58:49;16.10;99.90
41904;DHT22;27586;51.124;4.182;2023-07-20T04:01:15;16.20;99.90
41904;DHT22;27586;51.124;4.182;2023-07-20T04:03:42;16.20;99.90
41904;DHT22;27586;51.124;4.182;2023-07-20T04:06:08;16.10;99.90
41904;DHT22;27586;51.124;4.182;2023-07-20T04:08:36;16.10;99.90
41904;DHT22;27586;51.124;4.182;2023-07-20T04:11:02;16.10;99.90
41904;DHT22;27586;51.124;4.182;2023-07-20T04:13:28;16.00;99.90
41904;DHT22;27586;51.124;4.182;2023-07-20T04:15:54;16.10;99.90
41904;DHT22;27586;51.124;4.182;2023-07-20T04:18:20;16.20;99.90
41904;DHT22;27586;51.124;4.182;2023-07-20T04:20:46;16.20;99.90
41904;DHT22;27586;51.124;4.182;2023-07-20T04:23:12;16.20;99.90
41904;DHT22;27586;51.124;4.182;2023-07-20T04:25:39;16.30;99.90
41904;DHT22;27586;51.124;4.182;2023-07-20T04:28:09;16.30;99.90
41904;DHT22;27586;51.124;4.182;2023-07-20T04:30:36;16.30;99.90
41904;DHT22;27586;51.124;4.182;2023-07-20T04:33:03;16.30;99.90
41904;DHT22;27586;51.124;4.182;2023-07-20T04:35:51;16.30;99.90
41904;DHT22;27586;51.124;4.182;2023-07-20T04:38:17;16.40;99.90
41904;DHT22;27586;51.124;4.182;2023-07-20T04:40:48;16.40;99.90
41904;DHT22;27586;51.124;4.182;2023-07-20T04:43:15;16.40;99.90
41904;DHT22;27586;51.124;4.182;2023-07-20T04:45:40;16.40;99.90
41904;DHT22;27586;51.124;4.182;2023-07-20T04:48:10;16.50;99.90
41904;DHT22;27586;51.124;4.182;2023-07-20T04:50:43;16.50;99.90
41904;DHT22;27586;51.124;4.182;2023-07-20T04:53:11;16.50;99.90
41904;DHT22;27586;51.124;4.182;2023-07-20T04:55:37;16.50;99.90
41904;DHT22;27586;51.124;4.182;2023-07-20T04:58:04;16.50;99.90
41904;DHT22;27586;51.124;4.182;2023-07-20T05:00:31;16.50;99.90
41904;DHT22;27586;51.124;4.182;2023-07-20T05:02:56;16.50;99.90
41904;DHT22;27586;51.124;4.182;2023-07-20T05:05:22;16.50;99.90
41904;DHT22;27586;51.124;4.182;2023-07-20T05:07:48;16.60;99.90
41904;DHT22;27586;51.124;4.182;2023-07-20T05:10:14;16.60;99.90
41904;DHT22;27586;51.124;4.182;2023-07-20T05:12:39;16.70;99.90
41904;DHT22;27586;51.124;4.182;2023-07-20T05:15:05;16.70;99.90
41904;DHT22;27586;51.124;4.182;2023-07-20T05:17:31;16.70;99.90
41904;DHT22;27586;51.124;4.182;2023-07-20T05:19:56;16.70;99.90
41904;DHT22;27586;51.124;4.182;2023-07-20T05:22:22;16.70;99.90
41904;DHT22;27586;51.124;4.182;2023-07-20T05:24:50;16.80;99.90
41904;DHT22;27586;51.124;4.182;2023-07-20T05:27:15;16.70;99.90
41904;DHT22;27586;51.124;4.182;2023-07-20T05:29:45;16.70;99.90
41904;DHT22;27586;51.124;4.182;2023-07-20T05:32:10;16.90;99.90
41904;DHT22;27586;51.124;4.182;2023-07-20T05:34:36;17.00;99.90
41904;DHT22;27586;51.124;4.182;2023-07-20T05:37:02;17.10;99.90
41904;DHT22;27586;51.124;4.182;2023-07-20T05:39:27;17.20;99.90
41904;DHT22;27586;51.124;4.182;2023-07-20T05:41:53;17.20;99.90
41904;DHT22;27586;51.124;4.182;2023-07-20T05:44:18;17.20;99.90
41904;DHT22;27586;51.124;4.182;2023-07-20T05:46:44;17.30;99.90
41904;DHT22;27586;51.124;4.182;2023-07-20T05:49:10;17.40;99.90
41904;DHT22;27586;51.124;4.182;2023-07-20T05:51:35;17.40;99.90
41904;DHT22;27586;51.124;4.182;2023-07-20T05:54:01;17.50;99.90
41904;DHT22;27586;51.124;4.182;2023-07-20T05:56:27;17.60;99.90
41904;DHT22;27586;51.124;4.182;2023-07-20T05:58:53;17.60;99.90
41904;DHT22;27586;51.124;4.182;2023-07-20T06:01:18;17.50;99.90
41904;DHT22;27586;51.124;4.182;2023-07-20T06:03:44;17.60;99.90
41904;DHT22;27586;51.124;4.182;2023-07-20T06:06:10;17.70;99.90
41904;DHT22;27586;51.124;4.182;2023-07-20T06:08:37;17.80;99.90
41904;DHT22;27586;51.124;4.182;2023-07-20T06:11:03;17.90;99.90
41904;DHT22;27586;51.124;4.182;2023-07-20T06:13:28;17.90;99.90
41904;DHT22;27586;51.124;4.182;2023-07-20T06:15:54;18.00;99.90
41904;DHT22;27586;51.124;4.182;2023-07-20T06:18:24;18.00;99.90
41904;DHT22;27586;51.124;4.182;2023-07-20T06:20:50;18.00;99.90
41904;DHT22;27586;51.124;4.182;2023-07-20T06:23:19;18.10;99.90
41904;DHT22;27586;51.124;4.182;2023-07-20T06:25:45;18.00;99.90
41904;DHT22;27586;51.124;4.182;2023-07-20T06:28:11;17.90;99.90
41904;DHT22;27586;51.124;4.182;2023-07-20T06:30:37;17.80;99.90
41904;DHT22;27586;51.124;4.182;2023-07-20T06:33:03;17.70;99.90
41904;DHT22;27586;51.124;4.182;2023-07-20T06:35:28;17.60;99.90
41904;DHT22;27586;51.124;4.182;2023-07-20T06:37:54;17.60;99.90
41904;DHT22;27586;51.124;4.182;2023-07-20T06:40:20;17.70;99.90
41904;DHT22;27586;51.124;4.182;2023-07-20T06:42:46;17.80;99.90
41904;DHT22;27586;51.124;4.182;2023-07-20T06:45:11;17.80;99.90
41904;DHT22;27586;51.124;4.182;2023-07-20T06:47:40;18.00;99.90
41904;DHT22;27586;51.124;4.182;2023-07-20T06:50:07;17.90;99.90
41904;DHT22;27586;51.124;4.182;2023-07-20T06:52:33;18.00;99.90
41904;DHT22;27586;51.124;4.182;2023-07-20T06:54:59;18.20;99.90
41904;DHT22;27586;51.124;4.182;2023-07-20T06:57:25;18.40;99.90
41904;DHT22;27586;51.124;4.182;2023-07-20T06:59:51;18.50;99.90
41904;DHT22;27586;51.124;4.182;2023-07-20T07:02:16;18.60;99.90
41904;DHT22;27586;51.124;4.182;2023-07-20T07:04:42;18.60;99.90
41904;DHT22;27586;51.124;4.182;2023-07-20T07:07:08;18.70;99.90
41904;DHT22;27586;51.124;4.182;2023-07-20T07:09:34;18.80;99.90
41904;DHT22;27586;51.124;4.182;2023-07-20T07:12:00;18.80;99.90
41904;DHT22;27586;51.124;4.182;2023-07-20T07:14:26;18.80;99.90
41904;DHT22;27586;51.124;4.182;2023-07-20T07:16:51;18.60;99.90
41904;DHT22;27586;51.124;4.182;2023-07-20T07:19:17;18.60;99.90
41904;DHT22;27586;51.124;4.182;2023-07-20T07:21:43;18.60;99.90
41904;DHT22;27586;51.124;4.182;2023-07-20T07:24:08;18.60;99.90
41904;DHT22;27586;51.124;4.182;2023-07-20T07:26:36;18.40;99.90
41904;DHT22;27586;51.124;4.182;2023-07-20T07:29:01;18.50;99.90
41904;DHT22;27586;51.124;4.182;2023-07-20T07:31:29;19.00;99.90
41904;DHT22;27586;51.124;4.182;2023-07-20T07:33:56;19.20;99.90
41904;DHT22;27586;51.124;4.182;2023-07-20T07:36:21;19.20;99.90
41904;DHT22;27586;51.124;4.182;2023-07-20T07:38:47;19.30;99.90
41904;DHT22;27586;51.124;4.182;2023-07-20T07:41:13;19.60;99.90
41904;DHT22;27586;51.124;4.182;2023-07-20T07:43:39;19.80;99.90
41904;DHT22;27586;51.124;4.182;2023-07-20T07:46:05;19.90;99.90
41904;DHT22;27586;51.124;4.182;2023-07-20T07:48:31;20.00;99.90
41904;DHT22;27586;51.124;4.182;2023-07-20T07:50:56;20.00;99.90
41904;DHT22;27586;51.124;4.182;2023-07-20T07:53:22;19.90;99.90
41904;DHT22;27586;51.124;4.182;2023-07-20T07:55:48;19.80;99.90
41904;DHT22;27586;51.124;4.182;2023-07-20T07:58:14;20.00;99.90
41904;DHT22;27586;51.124;4.182;2023-07-20T08:00:39;20.20;99.90
41904;DHT22;27586;51.124;4.182;2023-07-20T08:03:08;20.10;99.90
41904;DHT22;27586;51.124;4.182;2023-07-20T08:05:34;20.20;99.90
41904;DHT22;27586;51.124;4.182;2023-07-20T08:08:03;20.00;99.90
41904;DHT22;27586;51.124;4.182;2023-07-20T08:10:30;20.30;99.90
41904;DHT22;27586;51.124;4.182;2023-07-20T08:12:55;20.70;99.90
41904;DHT22;27586;51.124;4.182;2023-07-20T08:15:21;20.80;99.90
41904;DHT22;27586;51.124;4.182;2023-07-20T08:17:47;20.90;99.90
41904;DHT22;27586;51.124;4.182;2023-07-20T08:20:14;20.80;99.90
41904;DHT22;27586;51.124;4.182;2023-07-20T08:22:41;20.70;99.90
41904;DHT22;27586;51.124;4.182;2023-07-20T08:25:08;20.60;99.90
41904;DHT22;27586;51.124;4.182;2023-07-20T08:27:34;20.30;99.90
41904;DHT22;27586;51.124;4.182;2023-07-20T08:30:00;20.50;99.90
41904;DHT22;27586;51.124;4.182;2023-07-20T08:32:26;20.30;99.90
41904;DHT22;27586;51.124;4.182;2023-07-20T08:34:52;20.50;99.90
41904;DHT22;27586;51.124;4.182;2023-07-20T08:37:18;20.50;99.90
41904;DHT22;27586;51.124;4.182;2023-07-20T08:39:44;20.70;99.90
41904;DHT22;27586;51.124;4.182;2023-07-20T08:42:10;20.80;99.90
41904;DHT22;27586;51.124;4.182;2023-07-20T08:44:38;20.60;99.90
41904;DHT22;27586;51.124;4.182;2023-07-20T08:47:04;20.40;99.90
41904;DHT22;27586;51.124;4.182;2023-07-20T08:49:35;20.30;99.90
41904;DHT22;27586;51.124;4.182;2023-07-20T08:52:02;20.70;99.90
41904;DHT22;27586;51.124;4.182;2023-07-20T08:54:30;20.70;99.90
41904;DHT22;27586;51.124;4.182;2023-07-20T08:57:02;20.70;99.90
41904;DHT22;27586;51.124;4.182;2023-07-20T08:59:29;20.70;99.90
41904;DHT22;27586;51.124;4.182;2023-07-20T09:01:56;20.50;99.90
41904;DHT22;27586;51.124;4.182;2023-07-20T09:04:23;20.70;99.90
41904;DHT22;27586;51.124;4.182;2023-07-20T09:06:50;20.60;99.90
41904;DHT22;27586;51.124;4.182;2023-07-20T09:09:16;20.60;99.90
41904;DHT22;27586;51.124;4.182;2023-07-20T09:11:42;20.70;99.90
41904;DHT22;27586;51.124;4.182;2023-07-20T09:14:08;20.90;99.90
41904;DHT22;27586;51.124;4.182;2023-07-20T09:16:51;21.20;99.90
41904;DHT22;27586;51.124;4.182;2023-07-20T09:19:17;21.40;99.90
41904;DHT22;27586;51.124;4.182;2023-07-20T09:21:50;20.90;99.90
41904;DHT22;27586;51.124;4.182;2023-07-20T09:24:18;20.60;99.90
41904;DHT22;27586;51.124;4.182;2023-07-20T09:26:45;20.30;99.90
41904;DHT22;27586;51.124;4.182;2023-07-20T09:29:14;20.60;99.90
41904;DHT22;27586;51.124;4.182;2023-07-20T09:31:39;20.90;99.90
41904;DHT22;27586;51.124;4.182;2023-07-20T09:34:06;20.80;99.90
41904;DHT22;27586;51.124;4.182;2023-07-20T09:36:38;21.00;99.90
41904;DHT22;27586;51.124;4.182;2023-07-20T09:39:04;21.20;99.90
41904;DHT22;27586;51.124;4.182;2023-07-20T09:41:42;21.10;99.90
41904;DHT22;27586;51.124;4.182;2023-07-20T09:44:08;21.20;99.90
41904;DHT22;27586;51.124;4.182;2023-07-20T09:46:46;21.30;99.90
41904;DHT22;27586;51.124;4.182;2023-07-20T09:49:12;21.40;99.90
41904;DHT22;27586;51.124;4.182;2023-07-20T09:51:38;21.40;99.90
41904;DHT22;27586;51.124;4.182;2023-07-20T09:54:04;21.70;99.90
41904;DHT22;27586;51.124;4.182;2023-07-20T09:56:31;21.60;99.90
41904;DHT22;27586;51.124;4.182;2023-07-20T09:58:58;22.10;99.90
41904;DHT22;27586;51.124;4.182;2023-07-20T10:01:24;22.50;99.90
41904;DHT22;27586;51.124;4.182;2023-07-20T10:03:53;22.70;99.90
41904;DHT22;27586;51.124;4.182;2023-07-20T10:06:30;22.30;99.90
41904;DHT22;27586;51.124;4.182;2023-07-20T10:09:01;22.00;99.90
41904;DHT22;27586;51.124;4.182;2023-07-20T10:11:32;22.00;99.90
41904;DHT22;27586;51.124;4.182;2023-07-20T10:14:03;22.10;99.90
41904;DHT22;27586;51.124;4.182;2023-07-20T10:16:35;22.40;99.90
41904;DHT22;27586;51.124;4.182;2023-07-20T10:19:13;22.60;99.90
41904;DHT22;27586;51.124;4.182;2023-07-20T10:21:48;22.60;99.90
41904;DHT22;27586;51.124;4.182;2023-07-20T10:24:17;22.50;99.90
41904;DHT22;27586;51.124;4.182;2023-07-20T10:26:44;22.60;99.90
41904;DHT22;27586;51.124;4.182;2023-07-20T10:29:10;22.50;99.90
41904;DHT22;27586;51.124;4.182;2023-07-20T10:31:37;22.70;99.90
41904;DHT22;27586;51.124;4.182;2023-07-20T10:34:03;22.50;99.90
41904;DHT22;27586;51.124;4.182;2023-07-20T10:36:29;22.50;99.90
41904;DHT22;27586;51.124;4.182;2023-07-20T10:38:56;22.40;99.90
41904;DHT22;27586;51.124;4.182;2023-07-20T10:41:31;22.40;99.90
41904;DHT22;27586;51.124;4.182;2023-07-20T10:44:01;22.30;99.90
41904;DHT22;27586;51.124;4.182;2023-07-20T10:46:34;22.20;99.90
41904;DHT22;27586;51.124;4.182;2023-07-20T10:49:08;22.40;99.90
41904;DHT22;27586;51.124;4.182;2023-07-20T10:51:44;22.40;99.90
41904;DHT22;27586;51.124;4.182;2023-07-20T10:56:48;22.70;99.90
41904;DHT22;27586;51.124;4.182;2023-07-20T10:59:37;22.70;99.90
41904;DHT22;27586;51.124;4.182;2023-07-20T11:02:10;22.80;99.90
41904;DHT22;27586;51.124;4.182;2023-07-20T11:04:43;22.60;99.90
41904;DHT22;27586;51.124;4.182;2023-07-20T11:07:09;22.60;99.90
41904;DHT22;27586;51.124;4.182;2023-07-20T11:09:36;22.40;99.90
41904;DHT22;27586;51.124;4.182;2023-07-20T11:12:15;22.60;99.90
41904;DHT22;27586;51.124;4.182;2023-07-20T11:14:55;22.40;99.90
41904;DHT22;27586;51.124;4.182;2023-07-20T11:17:31;22.30;99.90
41904;DHT22;27586;51.124;4.182;2023-07-20T11:20:00;22.50;99.90
41904;DHT22;27586;51.124;4.182;2023-07-20T11:22:27;22.90;99.90
41904;DHT22;27586;51.124;4.182;2023-07-20T11:24:56;23.30;99.90
41904;DHT22;27586;51.124;4.182;2023-07-20T11:27:21;23.50;99.90
41904;DHT22;27586;51.124;4.182;2023-07-20T11:29:50;23.40;99.90
41904;DHT22;27586;51.124;4.182;2023-07-20T11:32:23;23.20;99.90
41904;DHT22;27586;51.124;4.182;2023-07-20T11:34:50;23.10;99.90
41904;DHT22;27586;51.124;4.182;2023-07-20T11:37:17;22.80;99.90
41904;DHT22;27586;51.124;4.182;2023-07-20T11:39:42;22.60;99.90
41904;DHT22;27586;51.124;4.182;2023-07-20T11:42:08;22.50;99.90
41904;DHT22;27586;51.124;4.182;2023-07-20T11:44:34;22.30;99.90
41904;DHT22;27586;51.124;4.182;2023-07-20T11:47:12;22.00;99.90
41904;DHT22;27586;51.124;4.182;2023-07-20T11:49:42;21.80;99.90
41904;DHT22;27586;51.124;4.182;2023-07-20T11:52:10;21.70;99.90
41904;DHT22;27586;51.124;4.182;2023-07-20T11:54:37;21.40;99.90
41904;DHT22;27586;51.124;4.182;2023-07-20T11:57:04;21.20;99.90
41904;DHT22;27586;51.124;4.182;2023-07-20T11:59:31;21.00;99.90
41904;DHT22;27586;51.124;4.182;2023-07-20T12:01:58;21.10;99.90
41904;DHT22;27586;51.124;4.182;2023-07-20T12:04:24;21.20;99.90
41904;DHT22;27586;51.124;4.182;2023-07-20T12:06:49;21.10;99.90
41904;DHT22;27586;51.124;4.182;2023-07-20T12:09:16;21.00;99.90
41904;DHT22;27586;51.124;4.182;2023-07-20T12:11:44;20.90;99.90
41904;DHT22;27586;51.124;4.182;2023-07-20T12:14:10;20.90;99.90
41904;DHT22;27586;51.124;4.182;2023-07-20T12:16:37;20.90;99.90
41904;DHT22;27586;51.124;4.182;2023-07-20T12:19:07;20.90;99.90
41904;DHT22;27586;51.124;4.182;2023-07-20T12:21:37;20.90;99.90
41904;DHT22;27586;51.124;4.182;2023-07-20T12:24:04;21.10;99.90
41904;DHT22;27586;51.124;4.182;2023-07-20T12:26:30;21.30;99.90
41904;DHT22;27586;51.124;4.182;2023-07-20T12:28:57;21.10;99.90
41904;DHT22;27586;51.124;4.182;2023-07-20T12:31:25;21.30;99.90
41904;DHT22;27586;51.124;4.182;2023-07-20T12:33:51;21.30;99.90
41904;DHT22;27586;51.124;4.182;2023-07-20T12:36:18;21.20;99.90
41904;DHT22;27586;51.124;4.182;2023-07-20T12:38:44;21.20;99.90
41904;DHT22;27586;51.124;4.182;2023-07-20T12:41:11;21.10;99.90
41904;DHT22;27586;51.124;4.182;2023-07-20T12:43:44;21.10;99.90
41904;DHT22;27586;51.124;4.182;2023-07-20T12:46:11;21.00;99.90
41904;DHT22;27586;51.124;4.182;2023-07-20T12:48:40;21.00;99.90
41904;DHT22;27586;51.124;4.182;2023-07-20T12:51:08;20.90;99.90
41904;DHT22;27586;51.124;4.182;2023-07-20T12:53:34;20.90;99.90
41904;DHT22;27586;51.124;4.182;2023-07-20T12:56:00;20.80;99.90
41904;DHT22;27586;51.124;4.182;2023-07-20T12:58:26;20.80;99.90
41904;DHT22;27586;51.124;4.182;2023-07-20T13:00:52;20.70;99.90
41904;DHT22;27586;51.124;4.182;2023-07-20T13:03:18;20.70;99.90
41904;DHT22;27586;51.124;4.182;2023-07-20T13:05:48;20.70;99.90
41904;DHT22;27586;51.124;4.182;2023-07-20T13:08:14;20.60;99.90
41904;DHT22;27586;51.124;4.182;2023-07-20T13:10:40;20.70;99.90
41904;DHT22;27586;51.124;4.182;2023-07-20T13:13:06;20.80;99.90
41904;DHT22;27586;51.124;4.182;2023-07-20T13:15:32;20.80;99.90
41904;DHT22;27586;51.124;4.182;2023-07-20T13:17:59;20.80;99.90
41904;DHT22;27586;51.124;4.182;2023-07-20T13:20:25;20.80;99.90
41904;DHT22;27586;51.124;4.182;2023-07-20T13:22:51;20.90;99.90
41904;DHT22;27586;51.124;4.182;2023-07-20T13:25:17;20.90;99.90
41904;DHT22;27586;51.124;4.182;2023-07-20T13:27:44;21.00;99.90
41904;DHT22;27586;51.124;4.182;2023-07-20T13:30:10;21.10;99.90
41904;DHT22;27586;51.124;4.182;2023-07-20T13:32:45;21.10;99.90
41904;DHT22;27586;51.124;4.182;2023-07-20T13:35:11;21.20;99.90
41904;DHT22;27586;51.124;4.182;2023-07-20T13:37:37;21.30;99.90
41904;DHT22;27586;51.124;4.182;2023-07-20T13:40:03;21.40;99.90
41904;DHT22;27586;51.124;4.182;2023-07-20T13:42:31;21.40;99.90
41904;DHT22;27586;51.124;4.182;2023-07-20T13:44:57;21.60;99.90
41904;DHT22;27586;51.124;4.182;2023-07-20T13:47:22;21.60;99.90
41904;DHT22;27586;51.124;4.182;2023-07-20T13:49:48;21.70;99.90
41904;DHT22;27586;51.124;4.182;2023-07-20T13:52:14;21.60;99.90
41904;DHT22;27586;51.124;4.182;2023-07-20T13:54:40;21.40;99.90
41904;DHT22;27586;51.124;4.182;2023-07-20T13:57:06;21.30;99.90
41904;DHT22;27586;51.124;4.182;2023-07-20T13:59:31;21.20;99.90
41904;DHT22;27586;51.124;4.182;2023-07-20T14:01:57;21.20;99.90
41904;DHT22;27586;51.124;4.182;2023-07-20T14:04:23;21.20;99.90
41904;DHT22;27586;51.124;4.182;2023-07-20T14:06:48;21.40;99.90
41904;DHT22;27586;51.124;4.182;2023-07-20T14:09:15;21.30;99.90
41904;DHT22;27586;51.124;4.182;2023-07-20T14:11:40;21.40;99.90
41904;DHT22;27586;51.124;4.182;2023-07-20T14:14:06;21.30;99.90
41904;DHT22;27586;51.124;4.182;2023-07-20T14:16:32;21.40;99.90
41904;DHT22;27586;51.124;4.182;2023-07-20T14:18:58;21.50;99.90
41904;DHT22;27586;51.124;4.182;2023-07-20T14:21:24;21.30;99.90
41904;DHT22;27586;51.124;4.182;2023-07-20T14:23:52;21.20;99.90
41904;DHT22;27586;51.124;4.182;2023-07-20T14:26:21;21.30;99.90
41904;DHT22;27586;51.124;4.182;2023-07-20T14:28:47;21.50;99.90
41904;DHT22;27586;51.124;4.182;2023-07-20T14:31:13;21.40;99.90
41904;DHT22;27586;51.124;4.182;2023-07-20T14:33:39;21.40;99.90
41904;DHT22;27586;51.124;4.182;2023-07-20T14:36:05;21.40;99.90
41904;DHT22;27586;51.124;4.182;2023-07-20T14:38:31;21.30;99.90
41904;DHT22;27586;51.124;4.182;2023-07-20T14:40:57;21.20;99.90
41904;DHT22;27586;51.124;4.182;2023-07-20T14:43:23;21.20;99.90
41904;DHT22;27586;51.124;4.182;2023-07-20T14:45:48;21.00;99.90
41904;DHT22;27586;51.124;4.182;2023-07-20T14:48:14;21.00;99.90
41904;DHT22;27586;51.124;4.182;2023-07-20T14:50:40;20.90;99.90
41904;DHT22;27586;51.124;4.182;2023-07-20T14:53:05;20.80;99.90
41904;DHT22;27586;51.124;4.182;2023-07-20T14:55:33;20.80;99.90
41904;DHT22;27586;51.124;4.182;2023-07-20T14:57:58;20.80;99.90
41904;DHT22;27586;51.124;4.182;2023-07-20T15:00:24;20.50;99.90
41904;DHT22;27586;51.124;4.182;2023-07-20T15:02:50;20.20;99.90
41904;DHT22;27586;51.124;4.182;2023-07-20T15:05:21;19.80;99.90
41904;DHT22;27586;51.124;4.182;2023-07-20T15:07:47;19.70;99.90
41904;DHT22;27586;51.124;4.182;2023-07-20T15:10:13;19.50;99.90
41904;DHT22;27586;51.124;4.182;2023-07-20T15:12:39;19.40;99.90
41904;DHT22;27586;51.124;4.182;2023-07-20T15:15:11;19.40;99.90
41904;DHT22;27586;51.124;4.182;2023-07-20T15:17:38;19.20;99.90
41904;DHT22;27586;51.124;4.182;2023-07-20T15:20:06;19.10;99.90
41904;DHT22;27586;51.124;4.182;2023-07-20T15:22:35;18.90;99.90
41904;DHT22;27586;51.124;4.182;2023-07-20T15:25:08;18.90;99.90
41904;DHT22;27586;51.124;4.182;2023-07-20T15:27:36;18.70;99.90
41904;DHT22;27586;51.124;4.182;2023-07-20T15:30:03;18.60;99.90
41904;DHT22;27586;51.124;4.182;2023-07-20T15:32:28;18.50;99.90
41904;DHT22;27586;51.124;4.182;2023-07-20T15:34:54;18.60;99.90
41904;DHT22;27586;51.124;4.182;2023-07-20T15:37:20;18.70;99.90
41904;DHT22;27586;51.124;4.182;2023-07-20T15:39:49;18.80;99.90
41904;DHT22;27586;51.124;4.182;2023-07-20T15:42:15;18.80;99.90
41904;DHT22;27586;51.124;4.182;2023-07-20T15:44:40;18.70;99.90